Time;durP1;ratioP1;P1;durP2;ratioP2;P2;SDS_P1;SDS_P2;PMS_P1;PMS_P2;Temp;Humidity;BMP_temperature;BMP_pressure;BME280_temperature;BME280_humidity;BME280_pressure;Samples;Min_cycle;Max_cycle;Signal;HPM_P1;HPM_P2
2023/12/29 00:01:38;;;;;;;;;0.00;0.00;;;;;10.66;70.49;99226.00;5096246;28;8910;-58
2023/12/29 00:04:06;;;;;;;;;1.00;1.00;;;;;10.68;70.76;99208.91;5099481;28;10880;-58
2023/12/29 00:06:35;;;;;;;;;0.50;0.50;;;;;10.70;70.62;99211.44;5105009;28;8816;-58
2023/12/29 00:09:15;;;;;;;;;0.00;0.00;;;;;10.70;70.00;99214.94;5116964;28;8954;-56
2023/12/29 00:11:43;;;;;;;;;0.00;0.00;;;;;10.71;70.53;99197.97;5098589;28;8818;-59
2023/12/29 00:14:11;;;;;;;;;0.00;0.00;;;;;10.72;70.19;99189.03;5095693;28;9507;-57
2023/12/29 00:16:40;;;;;;;;;0.75;0.00;;;;;10.72;70.37;99186.38;5075997;28;8847;-57
2023/12/29 00:19:08;;;;;;;;;0.00;0.00;;;;;10.74;69.89;99191.53;5075977;28;8824;-58
2023/12/29 00:21:35;;;;;;;;;0.00;0.00;;;;;10.76;70.30;99174.44;5075841;28;8820;-59
2023/12/29 00:24:03;;;;;;;;;1.00;0.00;;;;;10.77;70.48;99192.09;5113128;28;8827;-59
2023/12/29 00:26:31;;;;;;;;;0.00;0.00;;;;;10.77;70.54;99191.25;5116347;28;8974;-59
2023/12/29 00:28:59;;;;;;;;;0.00;0.00;;;;;10.79;70.81;99192.81;5115804;28;8823;-59
2023/12/29 00:31:27;;;;;;;;;1.00;0.50;;;;;10.81;70.63;99201.50;5113816;28;8821;-59
2023/12/29 00:33:56;;;;;;;;;0.00;0.00;;;;;10.82;70.42;99179.19;5082297;28;8820;-59
2023/12/29 00:36:26;;;;;;;;;0.00;0.00;;;;;10.85;70.36;99199.38;5082437;28;8838;-59
2023/12/29 00:38:56;;;;;;;;;0.50;0.00;;;;;10.86;70.71;99201.06;5080595;28;8843;-59
2023/12/29 00:41:26;;;;;;;;;0.00;0.00;;;;;10.86;70.79;99201.06;5081073;28;8832;-59
2023/12/29 00:43:55;;;;;;;;;0.00;0.00;;;;;10.85;70.54;99200.22;5080004;28;9537;-60
2023/12/29 00:46:25;;;;;;;;;0.00;0.00;;;;;10.86;70.49;99195.75;5080125;28;8862;-59
2023/12/29 00:48:55;;;;;;;;;0.00;0.00;;;;;10.86;70.49;99191.22;5080542;28;8824;-59
2023/12/29 00:51:26;;;;;;;;;0.00;0.00;;;;;10.86;70.41;99191.22;5081064;28;8883;-59
2023/12/29 00:53:55;;;;;;;;;0.00;0.00;;;;;10.89;70.59;99190.13;5081750;28;8929;-59
2023/12/29 00:56:25;;;;;;;;;1.00;1.00;;;;;10.90;70.63;99186.47;5081630;28;8836;-60
2023/12/29 00:58:55;;;;;;;;;0.00;0.00;;;;;10.89;70.14;99175.00;5084691;28;8818;-59
2023/12/29 01:01:25;;;;;;;;;0.00;0.00;;;;;10.91;70.60;99175.69;5101744;28;8845;-59
2023/12/29 01:03:54;;;;;;;;;0.00;0.00;;;;;10.92;70.67;99172.03;5102225;28;8834;-59
2023/12/29 01:06:23;;;;;;;;;0.00;0.00;;;;;10.93;70.13;99157.72;5099141;28;8842;-57
2023/12/29 01:08:51;;;;;;;;;0.00;0.00;;;;;10.95;70.65;99158.44;5099247;28;9499;-59
2023/12/29 01:11:19;;;;;;;;;1.00;0.00;;;;;10.97;70.59;99164.44;5112635;28;8911;-58
2023/12/29 01:13:46;;;;;;;;;0.00;0.00;;;;;10.96;70.17;99181.44;5112391;28;8842;-59
2023/12/29 01:16:14;;;;;;;;;1.00;0.00;;;;;10.98;71.36;99175.94;5096125;28;9514;-58
2023/12/29 01:18:42;;;;;;;;;1.00;0.25;;;;;10.99;70.68;99169.66;5095637;28;8842;-58
2023/12/29 01:21:10;;;;;;;;;0.00;0.00;;;;;10.99;70.49;99157.16;5095589;28;8822;-58
2023/12/29 01:23:38;;;;;;;;;0.00;0.00;;;;;11.01;70.80;99165.00;5082147;28;8836;-59
2023/12/29 01:26:06;;;;;;;;;0.00;0.00;;;;;11.01;70.48;99165.81;5085161;28;8820;-58
2023/12/29 01:28:33;;;;;;;;;0.00;0.00;;;;;11.02;70.63;99143.56;5115654;28;8820;-57
2023/12/29 01:31:02;;;;;;;;;0.00;0.00;;;;;11.04;70.66;99148.72;5115694;28;9245;-59
2023/12/29 01:33:30;;;;;;;;;3.00;1.00;;;;;11.03;70.54;99155.91;5115792;28;8857;-59
2023/12/29 01:35:57;;;;;;;;;0.00;0.00;;;;;11.04;70.71;99149.56;5115266;28;8862;-57
2023/12/29 01:38:31;;;;;;;;;0.00;0.00;;;;;11.03;70.48;99145.25;5115635;28;8847;-59
2023/12/29 01:40:59;;;;;;;;;0.50;0.50;;;;;11.06;70.37;99139.59;5082901;28;9541;-59
2023/12/29 01:43:27;;;;;;;;;1.00;1.00;;;;;11.07;70.47;99132.47;5075039;28;9013;-58
2023/12/29 01:45:54;;;;;;;;;0.00;0.00;;;;;11.09;70.63;99139.31;5075020;28;8827;-59
2023/12/29 01:48:25;;;;;;;;;0.00;0.00;;;;;11.10;70.35;99124.16;5075001;28;8854;-57
2023/12/29 01:50:53;;;;;;;;;0.00;0.00;;;;;11.09;70.75;99139.31;5077623;28;8827;-58
2023/12/29 01:53:20;;;;;;;;;0.00;0.00;;;;;11.09;70.85;99136.63;5078579;28;8812;-58
2023/12/29 01:56:00;;;;;;;;;0.00;0.00;;;;;11.11;70.46;99118.72;5078464;28;8825;-58
2023/12/29 01:58:28;;;;;;;;;1.00;1.00;;;;;11.12;69.99;99127.53;5098333;28;9649;-59
2023/12/29 02:00:56;;;;;;;;;0.00;0.00;;;;;11.13;70.50;99127.38;5098997;28;8814;-57
2023/12/29 02:03:24;;;;;;;;;1.25;1.25;;;;;11.13;70.62;99127.38;5098650;28;8887;-59
2023/12/29 02:05:52;;;;;;;;;0.00;0.00;;;;;11.12;70.68;99130.19;5098595;28;8865;-57
2023/12/29 02:08:19;;;;;;;;;0.00;0.00;;;;;11.11;70.19;99126.69;5097783;28;8948;-58
2023/12/29 02:10:47;;;;;;;;;0.00;0.00;;;;;11.09;70.35;99123.31;5100046;28;8802;-57
2023/12/29 02:13:15;;;;;;;;;0.00;0.00;;;;;11.04;70.61;99114.94;5097577;28;8838;-57
2023/12/29 02:15:43;;;;;;;;;0.00;0.00;;;;;10.98;70.40;99122.66;5096603;28;8833;-57
2023/12/29 02:18:11;;;;;;;;;1.00;0.00;;;;;10.88;70.75;99125.38;5077767;28;8844;-58
2023/12/29 02:20:40;;;;;;;;;0.50;0.50;;;;;10.74;71.14;99133.81;5085482;28;8818;-57
2023/12/29 02:23:21;;;;;;;;;0.00;0.00;;;;;10.56;71.49;99111.53;5098849;28;8815;-58
2023/12/29 02:25:48;;;;;;;;;1.00;0.50;;;;;10.36;72.45;99117.03;5098146;28;8822;-58
2023/12/29 02:28:16;;;;;;;;;0.25;0.25;;;;;10.21;72.81;99111.28;5097988;28;8944;-58
2023/12/29 02:30:44;;;;;;;;;0.75;0.00;;;;;10.11;73.07;99120.25;5097947;28;8865;-57
2023/12/29 02:33:12;;;;;;;;;0.75;0.75;;;;;10.03;73.31;99123.59;5098273;28;8841;-59
2023/12/29 02:35:39;;;;;;;;;0.00;0.00;;;;;9.92;73.70;99112.22;5097484;28;8821;-59
2023/12/29 02:38:07;;;;;;;;;0.00;0.00;;;;;9.79;73.86;99117.78;5096905;28;8818;-58
2023/12/29 02:40:35;;;;;;;;;0.50;0.00;;;;;9.67;74.68;99113.59;5101422;28;8885;-59
2023/12/29 02:43:02;;;;;;;;;0.00;0.00;;;;;9.55;74.88;99106.69;5108398;28;8867;-58
2023/12/29 02:45:29;;;;;;;;;0.00;0.00;;;;;9.46;75.62;99115.50;5118635;28;9567;-57
2023/12/29 02:47:57;;;;;;;;;0.50;0.50;;;;;9.35;75.64;99115.56;5092624;28;8827;-59
2023/12/29 02:50:26;;;;;;;;;1.00;0.00;;;;;9.27;76.03;99120.72;5077673;28;8843;-59
2023/12/29 02:52:54;;;;;;;;;0.00;0.00;;;;;9.21;76.06;99118.63;5077636;28;8828;-59
2023/12/29 02:55:21;;;;;;;;;0.00;0.00;;;;;9.17;76.12;99108.38;5077878;28;8838;-57
2023/12/29 02:57:49;;;;;;;;;0.00;0.00;;;;;9.12;76.27;99115.91;5077799;28;8832;-57
2023/12/29 03:00:17;;;;;;;;;0.00;0.00;;;;;9.08;76.48;99125.13;5115666;28;8808;-58
2023/12/29 03:02:45;;;;;;;;;0.00;0.00;;;;;9.05;76.53;99131.53;5117318;28;8816;-59
2023/12/29 03:05:13;;;;;;;;;0.00;0.00;;;;;9.02;76.86;99130.94;5098484;28;9505;-58
2023/12/29 03:07:41;;;;;;;;;0.00;0.00;;;;;9.00;77.34;99128.44;5077238;28;8832;-58
2023/12/29 03:10:09;;;;;;;;;0.00;0.00;;;;;8.98;77.10;99150.78;5077496;28;8828;-58
2023/12/29 03:12:38;;;;;;;;;1.00;0.50;;;;;8.96;77.37;99137.63;5077300;28;9524;-58
2023/12/29 03:15:05;;;;;;;;;0.00;0.00;;;;;8.94;77.35;99139.59;5077192;28;8824;-58
2023/12/29 03:17:33;;;;;;;;;0.00;0.00;;;;;8.92;77.79;99141.53;5077056;28;8824;-58
2023/12/29 03:20:01;;;;;;;;;0.00;0.00;;;;;8.91;77.62;99139.88;5077324;28;8897;-57
2023/12/29 03:22:29;;;;;;;;;2.00;1.00;;;;;8.90;78.01;99134.69;5077894;28;8828;-58
2023/12/29 03:24:57;;;;;;;;;0.50;0.50;;;;;8.90;77.71;99132.03;5076624;28;8870;-57
2023/12/29 03:27:25;;;;;;;;;0.00;0.00;;;;;8.89;78.51;99128.50;5077133;28;8860;-58
2023/12/29 03:29:52;;;;;;;;;0.00;0.00;;;;;8.88;78.90;99110.09;5076879;28;8854;-57
2023/12/29 03:32:20;;;;;;;;;0.00;0.00;;;;;8.88;79.32;99108.25;5076764;28;8817;-58
2023/12/29 03:34:48;;;;;;;;;1.00;1.00;;;;;8.90;79.16;99127.53;5078779;28;9532;-58
2023/12/29 03:37:16;;;;;;;;;0.25;0.25;;;;;8.96;78.81;99110.25;5097220;28;8848;-58
2023/12/29 03:39:43;;;;;;;;;0.00;0.00;;;;;9.00;78.92;99111.66;5096476;28;9495;-59
2023/12/29 03:42:11;;;;;;;;;0.00;0.00;;;;;9.08;78.95;99114.50;5095498;28;8830;-57
2023/12/29 03:44:39;;;;;;;;;0.00;0.00;;;;;9.16;78.98;99106.69;5097057;28;8884;-58
2023/12/29 03:47:07;;;;;;;;;2.50;2.50;;;;;9.27;78.44;99110.09;5095636;28;8935;-57
2023/12/29 03:49:34;;;;;;;;;1.00;1.00;;;;;9.37;78.45;99111.00;5095714;28;8802;-58
2023/12/29 03:52:02;;;;;;;;;0.75;0.00;;;;;9.47;78.23;99100.38;5096896;28;8911;-56
2023/12/29 03:54:30;;;;;;;;;0.50;0.00;;;;;9.53;78.15;99102.50;5095878;28;8818;-58
2023/12/29 03:57:00;;;;;;;;;1.00;0.00;;;;;9.57;77.96;99096.75;5096681;28;8837;-56
2023/12/29 03:59:27;;;;;;;;;1.00;1.00;;;;;9.61;77.94;99095.53;5099558;28;8818;-56
2023/12/29 04:01:55;;;;;;;;;0.25;0.25;;;;;9.67;78.02;99091.47;5095833;28;8830;-57
2023/12/29 04:04:23;;;;;;;;;1.00;1.00;;;;;9.72;77.92;99090.06;5091795;28;8814;-58
2023/12/29 04:06:51;;;;;;;;;0.00;0.00;;;;;9.79;77.63;99087.72;5117113;28;8832;-58
2023/12/29 04:09:20;;;;;;;;;0.00;0.00;;;;;9.82;78.16;99074.13;5109105;28;8798;-58
2023/12/29 04:11:48;;;;;;;;;0.00;0.00;;;;;9.86;77.58;99076.38;5096369;28;8852;-58
2023/12/29 04:14:16;;;;;;;;;1.00;1.00;;;;;9.91;77.44;99078.63;5077730;28;9533;-58
2023/12/29 04:16:43;;;;;;;;;0.25;0.25;;;;;9.94;77.57;99078.38;5076193;28;8813;-58
2023/12/29 04:19:12;;;;;;;;;0.00;0.00;;;;;9.97;77.79;99081.59;5076130;28;8828;-58
2023/12/29 04:21:42;;;;;;;;;3.00;3.00;;;;;10.01;77.48;99079.50;5094119;28;8926;-58
2023/12/29 04:24:10;;;;;;;;;1.50;1.00;;;;;10.06;77.91;99094.06;5116777;28;8852;-57
2023/12/29 04:26:38;;;;;;;;;0.00;0.00;;;;;10.09;77.54;99093.78;5116426;28;8820;-58
2023/12/29 04:29:06;;;;;;;;;0.00;0.00;;;;;10.14;77.32;99096.00;5115584;28;8893;-57
2023/12/29 04:31:34;;;;;;;;;0.00;0.00;;;;;10.21;77.60;99081.19;5076130;28;8832;-59
2023/12/29 04:34:01;;;;;;;;;1.50;1.00;;;;;10.23;77.29;99084.56;5076461;28;8925;-58
2023/12/29 04:36:29;;;;;;;;;0.25;0.25;;;;;10.26;77.01;99084.25;5076150;28;8820;-59
2023/12/29 04:38:57;;;;;;;;;1.00;1.00;;;;;10.30;77.31;99088.31;5076070;28;8942;-58
2023/12/29 04:41:25;;;;;;;;;0.50;0.00;;;;;10.33;77.02;99077.41;5075966;28;8929;-59
2023/12/29 04:43:52;;;;;;;;;0.00;0.00;;;;;10.37;77.10;99071.66;5076064;28;8833;-59
2023/12/29 04:46:21;;;;;;;;;3.00;1.00;;;;;10.38;77.16;99073.31;5076462;28;8834;-58
2023/12/29 04:48:48;;;;;;;;;0.50;0.00;;;;;10.41;77.15;99078.34;5075888;28;8836;-58
2023/12/29 04:51:16;;;;;;;;;0.75;0.75;;;;;10.45;77.03;99076.25;5075521;28;8808;-59
2023/12/29 04:53:44;;;;;;;;;0.00;0.00;;;;;10.44;76.67;99088.72;5075930;28;8848;-59
2023/12/29 04:56:11;;;;;;;;;0.25;0.25;;;;;10.45;77.18;99090.41;5075583;28;8827;-59
2023/12/29 04:58:39;;;;;;;;;0.50;0.50;;;;;10.41;77.14;99086.34;5088118;28;8829;-58
2023/12/29 05:01:08;;;;;;;;;3.00;1.50;;;;;10.34;77.28;99082.59;5096272;28;8818;-58
2023/12/29 05:03:36;;;;;;;;;0.00;0.00;;;;;10.20;77.65;99101.63;5095222;28;8822;-58
2023/12/29 05:06:04;;;;;;;;;0.50;0.50;;;;;10.08;78.17;99116.03;5095025;28;9733;-57
2023/12/29 05:08:31;;;;;;;;;0.00;0.00;;;;;10.01;77.79;99116.72;5095368;28;8843;-58
2023/12/29 05:10:59;;;;;;;;;3.00;3.00;;;;;10.01;78.56;99093.59;5103017;28;8819;-57
2023/12/29 05:13:27;;;;;;;;;1.00;1.00;;;;;10.01;78.38;99101.59;5116362;28;8863;-57
2023/12/29 05:15:54;;;;;;;;;0.00;0.00;;;;;10.03;78.27;99110.28;5105240;28;9522;-59
2023/12/29 05:18:22;;;;;;;;;0.50;0.50;;;;;10.02;78.76;99105.91;5096063;28;8825;-58
2023/12/29 05:20:50;;;;;;;;;0.00;0.00;;;;;10.03;78.63;99101.50;5089007;28;8828;-56
2023/12/29 05:23:17;;;;;;;;;0.00;0.00;;;;;10.03;78.65;99093.50;5075823;28;8816;-58
2023/12/29 05:25:45;;;;;;;;;1.00;1.00;;;;;10.05;78.62;99105.69;5077546;28;8824;-57
2023/12/29 05:28:13;;;;;;;;;0.00;0.00;;;;;10.08;78.92;99099.25;5102859;28;8819;-59
2023/12/29 05:30:41;;;;;;;;;0.25;0.25;;;;;10.11;78.57;99109.63;5119886;28;8828;-57
2023/12/29 05:33:09;;;;;;;;;0.75;0.75;;;;;10.12;78.65;99109.47;5120027;28;9586;-59
2023/12/29 05:35:36;;;;;;;;;0.00;0.00;;;;;10.14;78.63;99102.19;5119875;28;8942;-57
2023/12/29 05:38:04;;;;;;;;;0.25;0.25;;;;;10.18;78.95;99116.88;5102359;28;8824;-58
2023/12/29 05:40:32;;;;;;;;;0.50;0.50;;;;;10.22;78.07;99112.97;5078871;28;8854;-58
2023/12/29 05:42:59;;;;;;;;;1.00;1.00;;;;;10.26;77.88;99118.84;5079227;28;8860;-57
2023/12/29 05:45:27;;;;;;;;;1.00;0.00;;;;;10.31;77.76;99114.78;5078861;28;8840;-57
2023/12/29 05:47:55;;;;;;;;;1.00;1.00;;;;;10.35;77.92;99105.56;5078432;28;8827;-57
2023/12/29 05:50:23;;;;;;;;;0.50;0.50;;;;;10.37;77.92;99103.59;5078862;28;8847;-58
2023/12/29 05:52:51;;;;;;;;;0.25;0.25;;;;;10.40;77.79;99103.28;5078840;28;8816;-57
2023/12/29 05:55:19;;;;;;;;;0.25;0.00;;;;;10.42;77.34;99096.03;5080136;28;9574;-56
2023/12/29 05:57:47;;;;;;;;;0.50;0.50;;;;;10.45;77.74;99103.72;5079108;28;9552;-58
2023/12/29 06:00:15;;;;;;;;;0.50;0.50;;;;;10.47;77.52;99103.59;5078919;28;8824;-57
2023/12/29 06:02:42;;;;;;;;;0.25;0.25;;;;;10.50;77.21;99095.31;5078532;28;8828;-57
2023/12/29 06:05:10;;;;;;;;;0.00;0.00;;;;;10.53;77.42;99098.53;5094005;28;8956;-58
2023/12/29 06:07:38;;;;;;;;;0.00;0.00;;;;;10.57;76.95;99091.09;5098505;28;8822;-58
2023/12/29 06:10:06;;;;;;;;;0.25;0.25;;;;;10.57;77.37;99110.56;5099067;28;8834;-58
2023/12/29 06:12:34;;;;;;;;;2.00;1.00;;;;;10.60;77.31;99114.75;5097686;28;8972;-58
2023/12/29 06:15:02;;;;;;;;;0.00;0.00;;;;;10.63;76.99;99102.00;5096928;28;8821;-58
2023/12/29 06:17:29;;;;;;;;;0.00;0.00;;;;;10.65;77.14;99113.38;5098925;28;8826;-57
2023/12/29 06:19:57;;;;;;;;;0.00;0.00;;;;;10.66;76.79;99109.72;5098324;28;8841;-59
2023/12/29 06:22:25;;;;;;;;;4.00;1.00;;;;;10.68;76.72;99134.38;5098158;28;8883;-58
2023/12/29 06:24:53;;;;;;;;;0.00;0.00;;;;;10.70;76.42;99121.75;5098479;28;8810;-58
2023/12/29 06:27:20;;;;;;;;;1.00;0.50;;;;;10.71;76.33;99123.41;5098224;28;9542;-57
2023/12/29 06:29:48;;;;;;;;;0.00;0.00;;;;;10.72;76.44;99118.94;5097632;28;8825;-58
2023/12/29 06:32:16;;;;;;;;;0.00;0.00;;;;;10.72;76.65;99124.28;5097298;28;8810;-58
2023/12/29 06:34:44;;;;;;;;;0.25;0.00;;;;;10.72;76.52;99125.13;5098237;28;8813;-58
2023/12/29 06:37:13;;;;;;;;;0.00;0.00;;;;;10.72;76.00;99126.94;5096073;28;8825;-58
2023/12/29 06:39:41;;;;;;;;;0.00;0.00;;;;;10.70;75.85;99121.75;5097427;28;8845;-58
2023/12/29 06:42:08;;;;;;;;;1.75;1.75;;;;;10.68;76.78;99118.38;5097102;28;8821;-56
2023/12/29 06:44:36;;;;;;;;;3.00;2.00;;;;;10.67;76.55;99123.84;5105961;28;8816;-56
2023/12/29 06:47:05;;;;;;;;;0.00;0.00;;;;;10.66;76.60;99109.72;5083528;28;8840;-58
2023/12/29 06:49:33;;;;;;;;;0.25;0.00;;;;;10.66;76.70;99109.72;5101857;28;8819;-58
2023/12/29 06:52:01;;;;;;;;;0.25;0.25;;;;;10.66;76.50;99099.06;5118319;28;8831;-59
2023/12/29 06:54:29;;;;;;;;;0.00;0.00;;;;;10.66;76.29;99101.72;5118340;28;8816;-57
2023/12/29 06:56:57;;;;;;;;;0.25;0.25;;;;;10.67;76.47;99106.06;5118109;28;8853;-59
2023/12/29 06:59:25;;;;;;;;;1.00;1.00;;;;;10.70;76.47;99107.59;5117721;28;8859;-58
2023/12/29 07:01:52;;;;;;;;;0.00;0.00;;;;;10.70;76.09;99108.44;5104323;28;9475;-58
2023/12/29 07:04:20;;;;;;;;;1.00;1.00;;;;;10.68;76.26;99102.41;5078427;28;8841;-57
2023/12/29 07:06:48;;;;;;;;;0.00;0.00;;;;;10.68;76.27;99105.06;5077294;28;8946;-58
2023/12/29 07:09:16;;;;;;;;;0.00;0.00;;;;;10.68;75.82;99113.06;5077136;28;8828;-57
2023/12/29 07:11:43;;;;;;;;;0.25;0.00;;;;;10.67;76.53;99102.53;5076615;28;8852;-58
2023/12/29 07:14:11;;;;;;;;;0.00;0.00;;;;;10.69;75.86;99112.06;5076629;28;8844;-58
2023/12/29 07:16:39;;;;;;;;;0.25;0.25;;;;;10.70;76.10;99123.59;5077108;28;8813;-58
2023/12/29 07:19:06;;;;;;;;;0.75;0.75;;;;;10.67;75.98;99119.38;5077763;28;8854;-58
2023/12/29 07:21:35;;;;;;;;;1.00;1.00;;;;;10.69;76.14;99105.94;5077067;28;8917;-57
2023/12/29 07:24:03;;;;;;;;;0.00;0.00;;;;;10.70;75.84;99111.09;5077227;28;8848;-59
2023/12/29 07:26:30;;;;;;;;;0.00;0.00;;;;;10.71;75.77;99107.44;5076756;28;8963;-58
2023/12/29 07:29:00;;;;;;;;;3.25;2.75;;;;;10.70;76.05;99104.94;5076336;28;8974;-57
2023/12/29 07:31:27;;;;;;;;;0.00;0.00;;;;;10.70;76.12;99095.13;5076799;28;8976;-58
2023/12/29 07:33:55;;;;;;;;;0.75;0.75;;;;;10.69;76.11;99101.44;5076606;28;8824;-58
2023/12/29 07:36:24;;;;;;;;;0.50;0.50;;;;;10.65;75.90;99108.03;5076950;28;8827;-59
2023/12/29 07:38:52;;;;;;;;;0.75;0.25;;;;;10.58;75.58;99120.25;5093539;28;8818;-59
2023/12/29 07:41:20;;;;;;;;;1.00;0.00;;;;;10.34;76.41;99119.00;5097055;28;8841;-56
2023/12/29 07:43:48;;;;;;;;;1.00;0.00;;;;;10.04;77.08;99127.97;5096201;28;8972;-57
2023/12/29 07:46:15;;;;;;;;;0.00;0.00;;;;;9.82;77.78;99112.22;5096138;28;8814;-59
2023/12/29 07:48:43;;;;;;;;;3.00;3.00;;;;;9.66;78.70;99121.69;5095392;28;8834;-57
2023/12/29 07:51:11;;;;;;;;;1.00;1.00;;;;;9.52;78.70;99119.41;5096158;28;8834;-57
2023/12/29 07:53:39;;;;;;;;;0.75;0.75;;;;;9.43;79.13;99112.25;5096230;28;8849;-58
2023/12/29 07:56:07;;;;;;;;;0.00;0.00;;;;;9.34;79.54;99116.56;5093106;28;9464;-58
2023/12/29 07:58:35;;;;;;;;;0.00;0.00;;;;;9.28;79.06;99119.75;5099047;28;8806;-58
2023/12/29 08:01:02;;;;;;;;;0.50;0.50;;;;;9.22;79.60;99128.28;5112123;28;8901;-58
2023/12/29 08:03:30;;;;;;;;;0.00;0.00;;;;;9.18;79.79;99104.78;5113817;28;8836;-58
2023/12/29 08:05:58;;;;;;;;;0.00;0.00;;;;;9.15;80.23;99103.22;5095318;28;8935;-57
2023/12/29 08:08:26;;;;;;;;;0.00;0.00;;;;;9.13;80.05;99106.97;5095316;28;8821;-57
2023/12/29 08:10:53;;;;;;;;;0.00;0.00;;;;;9.10;79.91;99097.47;5087585;28;8828;-56
2023/12/29 08:13:22;;;;;;;;;1.50;1.00;;;;;9.09;80.32;99101.09;5074104;28;8994;-58
2023/12/29 08:15:49;;;;;;;;;2.00;2.00;;;;;9.09;79.94;99100.22;5082464;28;8863;-58
2023/12/29 08:18:17;;;;;;;;;0.00;0.00;;;;;9.07;80.68;99103.03;5115379;28;8836;-57
2023/12/29 08:20:46;;;;;;;;;0.00;0.00;;;;;9.07;81.09;99103.03;5115024;28;8842;-56
2023/12/29 08:23:13;;;;;;;;;1.00;1.00;;;;;9.07;80.97;99111.00;5115954;28;8848;-56
2023/12/29 08:25:41;;;;;;;;;0.00;0.00;;;;;9.07;80.71;99116.31;5115917;28;8885;-58
2023/12/29 08:28:09;;;;;;;;;0.00;0.00;;;;;9.06;80.83;99109.34;5097434;28;8859;-58
2023/12/29 08:30:37;;;;;;;;;0.75;0.25;;;;;9.06;80.95;99125.28;5075131;28;8970;-58
2023/12/29 08:33:05;;;;;;;;;0.00;0.00;;;;;9.05;80.86;99136.84;5075993;28;8832;-58
2023/12/29 08:35:33;;;;;;;;;0.00;0.00;;;;;9.05;81.41;99130.69;5075601;28;8852;-56
2023/12/29 08:38:01;;;;;;;;;0.00;0.00;;;;;9.04;81.21;99124.53;5075591;28;8840;-58
2023/12/29 08:40:29;;;;;;;;;0.00;0.00;;;;;9.01;81.66;99126.63;5075380;28;8847;-58
2023/12/29 08:42:57;;;;;;;;;0.00;0.00;;;;;9.00;81.58;99117.81;5075098;28;8966;-58
2023/12/29 08:45:25;;;;;;;;;0.00;0.00;;;;;8.99;81.86;99134.72;5075830;28;8832;-58
2023/12/29 08:47:52;;;;;;;;;0.50;0.50;;;;;8.98;81.66;99145.47;5074952;28;8851;-58
2023/12/29 08:50:21;;;;;;;;;0.00;0.00;;;;;8.98;81.56;99148.13;5074479;28;8836;-58
2023/12/29 08:52:49;;;;;;;;;0.25;0.25;;;;;8.97;82.18;99151.75;5082982;28;8886;-58
2023/12/29 08:55:16;;;;;;;;;0.00;0.00;;;;;8.95;81.99;99140.44;5095493;28;8844;-58
2023/12/29 08:57:44;;;;;;;;;0.00;0.00;;;;;8.96;82.43;99140.28;5095387;28;8906;-58
2023/12/29 09:00:12;;;;;;;;;0.00;0.00;;;;;8.96;82.37;99132.31;5096379;28;8960;-58
2023/12/29 09:02:40;;;;;;;;;0.00;0.00;;;;;8.96;82.75;99142.94;5098887;28;8837;-58
2023/12/29 09:05:08;;;;;;;;;0.00;0.00;;;;;8.96;82.74;99142.94;5099748;28;8818;-58
2023/12/29 09:07:36;;;;;;;;;0.00;0.00;;;;;8.96;82.53;99132.31;5099920;28;8939;-58
2023/12/29 09:10:07;;;;;;;;;0.00;0.00;;;;;8.96;82.30;99126.19;5099090;28;8821;-58
2023/12/29 09:12:35;;;;;;;;;0.00;0.00;;;;;8.97;82.40;99139.31;5098286;28;8910;-58
2023/12/29 09:15:03;;;;;;;;;0.00;0.00;;;;;8.98;82.70;99117.09;5097988;28;8829;-58
2023/12/29 09:17:31;;;;;;;;;0.00;0.00;;;;;8.97;82.92;99128.69;5097679;28;8850;-56
2023/12/29 09:19:59;;;;;;;;;0.00;0.00;;;;;8.99;82.95;99137.38;5096890;28;8923;-56
2023/12/29 09:22:37;;;;;;;;;0.00;0.00;;;;;9.02;83.17;99146.88;5098800;28;8837;-57
2023/12/29 09:25:05;;;;;;;;;0.00;0.00;;;;;9.02;82.86;99136.25;5098625;28;8810;-57
2023/12/29 09:27:33;;;;;;;;;1.00;0.00;;;;;9.05;82.87;99114.78;5098854;28;8834;-56
2023/12/29 09:30:01;;;;;;;;;3.00;1.50;;;;;9.05;83.04;99120.09;5098871;28;8826;-57
2023/12/29 09:32:28;;;;;;;;;0.00;0.00;;;;;9.06;83.51;99117.31;5099487;28;8818;-56
2023/12/29 09:34:56;;;;;;;;;0.00;0.00;;;;;9.09;83.38;99127.66;5099157;28;8810;-56
2023/12/29 09:37:24;;;;;;;;;0.50;0.00;;;;;9.11;83.13;99141.63;5097646;28;8837;-57
2023/12/29 09:39:52;;;;;;;;;0.00;0.00;;;;;9.16;83.40;99114.66;5098442;28;8838;-57
2023/12/29 09:42:20;;;;;;;;;0.00;0.00;;;;;9.19;83.64;99125.88;5098840;28;8831;-55
2023/12/29 09:44:47;;;;;;;;;0.00;0.00;;;;;9.26;83.29;99139.47;5098485;28;8842;-57
2023/12/29 09:47:15;;;;;;;;;0.00;0.00;;;;;9.31;82.68;99134.56;5098653;28;8830;-57
2023/12/29 09:49:43;;;;;;;;;0.00;0.00;;;;;9.35;83.14;99130.69;5098373;28;9491;-57
2023/12/29 09:52:11;;;;;;;;;0.00;0.00;;;;;9.40;83.37;99123.13;5098370;28;8842;-57
2023/12/29 09:54:39;;;;;;;;;0.00;0.00;;;;;9.45;82.93;99123.59;5078432;28;8836;-57
2023/12/29 09:57:07;;;;;;;;;0.00;0.00;;;;;9.53;83.49;99131.72;5078147;28;8840;-57
2023/12/29 09:59:34;;;;;;;;;0.00;0.00;;;;;9.60;82.47;99135.53;5077572;28;8820;-58
2023/12/29 10:02:03;;;;;;;;;0.00;0.00;;;;;9.64;82.53;99123.66;5085697;28;8868;-58
2023/12/29 10:04:31;;;;;;;;;0.00;0.00;;;;;9.70;82.48;99123.94;5096659;28;8826;-56
2023/12/29 10:06:59;;;;;;;;;0.00;0.00;;;;;9.79;82.57;99131.09;5096608;28;8822;-57
2023/12/29 10:09:27;;;;;;;;;0.00;0.00;;;;;9.88;82.63;99132.09;5097693;28;8830;-58
2023/12/29 10:11:55;;;;;;;;;0.00;0.00;;;;;9.92;82.21;99144.97;5098587;28;8853;-57
2023/12/29 10:14:23;;;;;;;;;0.00;0.00;;;;;9.92;81.70;99187.53;5092903;28;8850;-58
2023/12/29 10:16:50;;;;;;;;;0.00;0.00;;;;;9.85;82.07;99151.81;5095001;28;8841;-58
2023/12/29 10:19:18;;;;;;;;;0.00;0.00;;;;;9.77;82.26;99156.97;5096020;28;8814;-58
2023/12/29 10:21:48;;;;;;;;;1.50;0.00;;;;;9.69;82.37;99167.44;5096678;28;8914;-57
2023/12/29 10:24:15;;;;;;;;;0.00;0.00;;;;;9.62;82.60;99158.34;5096296;28;8849;-58
2023/12/29 10:26:43;;;;;;;;;0.00;0.00;;;;;9.58;83.41;99148.13;5096775;28;8856;-57
2023/12/29 10:29:13;;;;;;;;;0.00;0.00;;;;;9.54;83.09;99147.53;5100515;28;8810;-56
2023/12/29 10:31:44;;;;;;;;;0.00;0.00;;;;;9.53;83.41;99163.59;5113506;28;8877;-57
2023/12/29 10:34:12;;;;;;;;;0.00;0.00;;;;;9.51;82.89;99165.56;5114813;28;8828;-56
2023/12/29 10:36:40;;;;;;;;;0.00;0.00;;;;;9.51;83.33;99174.41;5097822;28;8996;-58
2023/12/29 10:39:08;;;;;;;;;0.00;0.00;;;;;9.49;83.37;99171.00;5097984;28;9569;-57
2023/12/29 10:41:36;;;;;;;;;0.00;0.00;;;;;9.47;83.13;99162.34;5097575;28;9503;-57
2023/12/29 10:44:03;;;;;;;;;0.00;0.00;;;;;9.43;83.77;99160.91;5089029;28;8978;-57
2023/12/29 10:46:31;;;;;;;;;0.00;0.00;;;;;9.40;83.85;99158.53;5084919;28;8816;-57
2023/12/29 10:48:59;;;;;;;;;0.00;0.00;;;;;9.39;83.73;99145.38;5117362;28;8828;-55
2023/12/29 10:51:27;;;;;;;;;0.50;0.50;;;;;9.39;83.73;99119.66;5117304;28;8808;-57
2023/12/29 10:53:55;;;;;;;;;3.75;3.75;;;;;9.37;83.74;99132.25;5117433;28;8820;-56
2023/12/29 10:56:22;;;;;;;;;0.00;0.00;;;;;9.39;84.10;99126.78;5117593;28;8909;-57
2023/12/29 10:58:50;;;;;;;;;1.00;1.00;;;;;9.39;83.49;99127.63;5117644;28;8913;-56
2023/12/29 11:01:19;;;;;;;;;0.00;0.00;;;;;9.41;84.19;99123.00;5096250;28;8828;-57
2023/12/29 11:03:47;;;;;;;;;0.00;0.00;;;;;9.42;84.48;99114.06;5076972;28;8835;-57
2023/12/29 11:06:15;;;;;;;;;0.00;0.00;;;;;9.42;84.50;99103.44;5076867;28;8828;-57
2023/12/29 11:08:43;;;;;;;;;0.00;0.00;;;;;9.43;84.23;99085.69;5076248;28;8970;-57
2023/12/29 11:11:10;;;;;;;;;0.00;0.00;;;;;9.43;84.54;99107.78;5076983;28;8835;-57
2023/12/29 11:13:38;;;;;;;;;0.00;0.00;;;;;9.45;84.92;99110.31;5076885;28;8836;-56
2023/12/29 11:16:06;;;;;;;;;0.00;0.00;;;;;9.49;84.79;99107.22;5075644;28;8832;-57
2023/12/29 11:18:34;;;;;;;;;0.00;0.00;;;;;9.54;85.15;99102.38;5076800;28;8828;-57
2023/12/29 11:21:02;;;;;;;;;0.00;0.00;;;;;9.60;85.08;99107.13;5076187;28;9514;-55
2023/12/29 11:23:30;;;;;;;;;0.00;0.00;;;;;9.67;85.21;99097.63;5083282;28;8830;-57
2023/12/29 11:25:58;;;;;;;;;0.00;0.00;;;;;9.74;84.69;99097.91;5096268;28;8830;-57
2023/12/29 11:28:26;;;;;;;;;0.00;0.00;;;;;9.82;84.78;99109.56;5096177;28;8841;-55
2023/12/29 11:30:53;;;;;;;;;0.00;0.00;;;;;9.95;84.24;99096.00;5095046;28;8817;-56
2023/12/29 11:33:22;;;;;;;;;0.00;0.00;;;;;10.04;83.93;99104.03;5095103;28;8824;-56
2023/12/29 11:35:49;;;;;;;;;0.00;0.00;;;;;10.10;83.63;99111.41;5095546;28;8943;-55
2023/12/29 11:38:17;;;;;;;;;0.00;0.00;;;;;10.07;83.40;99109.06;5095904;28;8834;-56
2023/12/29 11:40:45;;;;;;;;;0.00;0.00;;;;;10.03;83.55;99126.25;5096537;28;8849;-56
2023/12/29 11:43:14;;;;;;;;;0.00;0.00;;;;;10.01;83.67;99122.88;5099368;28;8834;-57
2023/12/29 11:45:42;;;;;;;;;0.00;0.00;;;;;10.03;83.92;99122.75;5095927;28;8830;-57
2023/12/29 11:48:11;;;;;;;;;0.00;0.00;;;;;10.06;84.49;99133.13;5094902;28;8841;-57
2023/12/29 11:50:40;;;;;;;;;0.00;0.00;;;;;10.09;84.37;99123.03;5095482;28;8823;-57